createdAt,value
2023-08-08T00:03:47.908Z,0.50
2023-08-08T00:06:18.311Z,0.40
2023-08-08T00:11:18.788Z,0.43
2023-08-08T00:13:49.831Z,0.35
2023-08-08T00:16:20.283Z,0.45
2023-08-08T00:18:54.844Z,0.47
2023-08-08T00:21:25.274Z,0.55
2023-08-08T00:23:56.930Z,0.52
2023-08-08T00:26:31.800Z,0.43
2023-08-08T00:29:03.307Z,0.50
2023-08-08T00:31:34.919Z,0.43
2023-08-08T00:34:07.967Z,0.50
2023-08-08T00:36:38.237Z,0.43
2023-08-08T00:39:09.267Z,0.45
2023-08-08T00:41:39.566Z,0.47
2023-08-08T00:44:10.189Z,0.52
2023-08-08T00:46:40.580Z,0.40
2023-08-08T00:49:13.901Z,0.38
2023-08-08T00:51:47.474Z,0.80
2023-08-08T00:54:22.639Z,0.40
2023-08-08T00:56:53.001Z,0.43
2023-08-08T00:59:23.710Z,0.65
2023-08-08T01:01:59.999Z,0.50
2023-08-08T01:04:33.664Z,0.82
2023-08-08T01:07:11.738Z,0.40
2023-08-08T01:09:57.185Z,0.30
2023-08-08T01:12:29.609Z,0.40
2023-08-08T01:15:00.939Z,0.20
2023-08-08T01:17:31.790Z,0.45
2023-08-08T01:20:05.582Z,0.45
2023-08-08T01:22:41.750Z,0.35
2023-08-08T01:25:14.934Z,0.43
2023-08-08T01:27:47.777Z,0.45
2023-08-08T01:30:19.489Z,0.35
2023-08-08T01:32:52.510Z,0.65
2023-08-08T01:35:23.063Z,0.50
2023-08-08T01:37:58.055Z,0.43
2023-08-08T01:40:33.118Z,0.52
2023-08-08T01:43:03.532Z,0.50
2023-08-08T01:45:37.993Z,0.45
2023-08-08T01:48:11.687Z,0.40
2023-08-08T01:50:45.339Z,0.47
2023-08-08T01:53:15.966Z,0.35
2023-08-08T01:55:48.827Z,0.52
2023-08-08T01:58:19.378Z,0.38
2023-08-08T02:00:48.174Z,0.32
2023-08-08T02:03:21.641Z,0.32
2023-08-08T02:05:52.408Z,0.40
2023-08-08T02:08:22.681Z,0.22
2023-08-08T02:13:25.683Z,0.30
2023-08-08T02:15:58.453Z,0.32
2023-08-08T02:20:58.782Z,0.40
2023-08-08T02:23:28.974Z,0.40
2023-08-08T02:28:31.937Z,0.40
2023-08-08T02:33:34.551Z,0.45
2023-08-08T02:36:04.922Z,0.28
2023-08-08T02:41:10.805Z,0.40
2023-08-08T02:43:44.132Z,0.45
2023-08-08T02:46:14.528Z,0.30
2023-08-08T02:51:14.817Z,0.40
2023-08-08T02:56:17.697Z,0.43
2023-08-08T02:58:48.002Z,0.32
2023-08-08T03:01:18.965Z,0.40
2023-08-08T03:03:50.429Z,0.65
2023-08-08T03:06:20.900Z,0.60
2023-08-08T03:08:51.247Z,0.22
2023-08-08T03:11:24.109Z,0.60
2023-08-08T03:13:54.524Z,0.47
2023-08-08T03:16:24.884Z,0.70
2023-08-08T03:18:55.265Z,0.60
2023-08-08T03:21:25.664Z,0.52
2023-08-08T03:23:56.222Z,0.38
2023-08-08T03:29:01.596Z,0.85
2023-08-08T03:34:02.618Z,0.60
2023-08-08T03:36:33.021Z,0.57
2023-08-08T03:39:05.466Z,0.38
2023-08-08T03:41:40.170Z,0.70
2023-08-08T03:44:11.157Z,0.63
2023-08-08T03:46:41.448Z,0.63
2023-08-08T03:51:41.701Z,0.63
2023-08-08T03:54:13.473Z,0.40
2023-08-08T03:56:46.403Z,0.45
2023-08-08T03:59:16.712Z,0.70
2023-08-08T04:04:19.782Z,0.40
2023-08-08T04:06:53.527Z,0.50
2023-08-08T04:09:23.832Z,0.50
2023-08-08T04:14:26.841Z,0.63
2023-08-08T04:19:27.377Z,0.50
2023-08-08T04:21:57.989Z,0.50
2023-08-08T04:24:29.316Z,0.80
2023-08-08T04:27:02.233Z,0.73
2023-08-08T04:29:32.577Z,0.45
2023-08-08T04:32:03.001Z,0.70
2023-08-08T04:34:33.323Z,0.35
2023-08-08T04:39:33.611Z,0.28
2023-08-08T04:42:06.959Z,0.28
2023-08-08T04:44:37.291Z,0.20
2023-08-08T04:49:37.786Z,0.32
2023-08-08T04:54:38.627Z,0.43
2023-08-08T04:57:12.771Z,0.28
2023-08-08T04:59:43.992Z,0.28
2023-08-08T05:02:14.297Z,0.43
2023-08-08T05:07:16.909Z,0.40
2023-08-08T05:09:47.297Z,0.28
2023-08-08T05:12:20.138Z,0.70
2023-08-08T05:14:50.484Z,0.40
2023-08-08T05:17:20.879Z,0.55
2023-08-08T05:19:52.340Z,0.35
2023-08-08T05:22:22.597Z,0.40
2023-08-08T05:27:25.454Z,0.52
2023-08-08T05:29:55.702Z,0.52
2023-08-08T05:32:26.105Z,0.35
2023-08-08T05:34:56.790Z,0.35
2023-08-08T05:37:27.179Z,0.43
2023-08-08T05:39:57.959Z,0.38
2023-08-08T05:42:35.020Z,0.80
2023-08-08T05:45:06.079Z,0.55
2023-08-08T05:47:37.029Z,0.45
2023-08-08T05:50:08.277Z,0.45
2023-08-08T05:52:38.565Z,0.38
2023-08-08T05:55:10.570Z,0.50
2023-08-08T05:57:43.511Z,0.22
2023-08-08T06:00:15.436Z,0.30
2023-08-08T06:02:45.737Z,0.20
2023-08-08T06:05:16.134Z,0.35
2023-08-08T06:07:46.552Z,0.32
2023-08-08T06:10:16.861Z,0.25
2023-08-08T06:12:49.696Z,0.43
2023-08-08T06:15:20.037Z,0.55
2023-08-08T06:17:50.311Z,0.30
2023-08-08T06:20:20.998Z,0.22
2023-08-08T06:22:51.322Z,0.43
2023-08-08T06:25:27.189Z,0.22
2023-08-08T06:28:03.246Z,0.25
2023-08-08T06:30:33.608Z,0.50
2023-08-08T06:33:04.718Z,0.40
2023-08-08T06:35:35.108Z,0.43
2023-08-08T06:38:05.527Z,0.35
2023-08-08T06:40:41.884Z,0.43
2023-08-08T06:45:45.154Z,0.43
2023-08-08T06:48:15.520Z,0.55
2023-08-08T06:50:45.786Z,0.32
2023-08-08T06:53:16.193Z,0.22
2023-08-08T06:55:43.878Z,0.40
2023-08-08T06:58:16.842Z,0.43
2023-08-08T07:00:49.632Z,0.30
2023-08-08T07:03:20.096Z,0.73
2023-08-08T07:05:53.299Z,0.40
2023-08-08T07:08:23.922Z,0.43
2023-08-08T07:10:55.408Z,0.32
2023-08-08T07:13:29.890Z,0.40
2023-08-08T07:16:00.140Z,0.50
2023-08-08T07:18:30.836Z,0.22
2023-08-08T07:21:01.106Z,0.30
2023-08-08T07:23:31.410Z,0.43
2023-08-08T07:26:01.674Z,0.32
2023-08-08T07:28:34.682Z,0.52
2023-08-08T07:31:05.102Z,0.22
2023-08-08T07:33:35.531Z,0.45
2023-08-08T07:36:05.850Z,0.22
2023-08-08T07:38:36.478Z,0.38
2023-08-08T07:41:09.274Z,0.68
2023-08-08T07:43:42.241Z,0.50
2023-08-08T07:46:13.134Z,0.60
2023-08-08T07:48:43.477Z,0.55
2023-08-08T07:51:13.742Z,0.50
2023-08-08T07:53:47.278Z,0.32
2023-08-08T07:56:20.711Z,0.25
2023-08-08T07:58:54.924Z,0.40
2023-08-08T08:01:26.638Z,0.90
2023-08-08T08:03:57.098Z,0.43
2023-08-08T08:06:27.430Z,0.70
2023-08-08T08:08:57.727Z,0.43
2023-08-08T08:11:28.118Z,0.75
2023-08-08T08:14:00.998Z,0.47
2023-08-08T08:16:31.419Z,0.38
2023-08-08T08:19:06.666Z,0.50
2023-08-08T08:21:36.917Z,0.60
2023-08-08T08:24:10.305Z,0.43
2023-08-08T08:26:40.545Z,0.20
2023-08-08T08:29:16.368Z,0.45
2023-08-08T08:31:46.625Z,0.50
2023-08-08T08:34:16.834Z,0.55
2023-08-08T08:36:50.005Z,0.43
2023-08-08T08:39:20.874Z,0.28
2023-08-08T08:41:53.471Z,0.70
2023-08-08T08:44:27.117Z,0.38
2023-08-08T08:46:59.856Z,0.43
2023-08-08T08:49:32.679Z,0.93
2023-08-08T08:52:06.359Z,0.50
2023-08-08T08:54:37.419Z,0.55
2023-08-08T08:57:08.368Z,0.60
2023-08-08T08:59:41.285Z,0.63
2023-08-08T09:02:13.091Z,0.65
2023-08-08T09:04:44.439Z,0.60
2023-08-08T09:07:16.609Z,0.50
2023-08-08T09:09:47.782Z,0.88
2023-08-08T09:12:19.849Z,0.80
2023-08-08T09:14:59.389Z,0.73
2023-08-08T09:17:42.088Z,0.80
2023-08-08T09:20:19.059Z,0.52
2023-08-08T09:22:49.730Z,0.50
2023-08-08T09:25:20.035Z,0.47
2023-08-08T09:27:52.517Z,0.60
2023-08-08T09:30:25.939Z,0.60
2023-08-08T09:32:56.350Z,0.82
2023-08-08T09:35:27.745Z,0.35
2023-08-08T09:37:58.779Z,0.73
2023-08-08T09:40:29.160Z,0.63
2023-08-08T09:43:01.550Z,0.77
2023-08-08T09:45:44.217Z,0.55
2023-08-08T09:48:14.731Z,0.50
2023-08-08T09:50:46.539Z,0.73
2023-08-08T09:53:17.523Z,0.52
2023-08-08T09:55:48.457Z,0.65
2023-08-08T09:58:23.266Z,0.73
2023-08-08T10:00:56.521Z,0.40
2023-08-08T10:03:29.899Z,0.55
2023-08-08T10:06:00.483Z,0.65
2023-08-08T10:08:30.891Z,0.52
2023-08-08T10:11:01.322Z,0.38
2023-08-08T10:13:31.702Z,0.82
2023-08-08T10:16:11.786Z,0.47
2023-08-08T10:18:42.317Z,0.47
2023-08-08T10:21:12.877Z,0.60
2023-08-08T10:23:47.373Z,0.35
2023-08-08T10:26:23.872Z,0.40
2023-08-08T10:29:00.298Z,0.60
2023-08-08T10:31:37.915Z,0.77
2023-08-08T10:34:11.067Z,0.55
2023-08-08T10:36:55.312Z,0.50
2023-08-08T10:39:25.826Z,0.65
2023-08-08T10:41:56.116Z,0.65
2023-08-08T10:44:27.756Z,0.30
2023-08-08T10:47:04.604Z,0.80
2023-08-08T10:49:35.996Z,0.82
2023-08-08T10:52:07.814Z,0.30
2023-08-08T10:54:44.056Z,0.63
2023-08-08T10:57:20.744Z,0.45
2023-08-08T10:59:51.373Z,0.47
2023-08-08T11:02:27.825Z,0.73
2023-08-08T11:05:00.389Z,0.52
2023-08-08T11:07:32.047Z,0.50
2023-08-08T11:10:02.426Z,0.32
2023-08-08T11:12:32.767Z,0.47
2023-08-08T11:15:03.900Z,0.57
2023-08-08T11:17:40.689Z,0.55
2023-08-08T11:20:11.942Z,0.52
2023-08-08T11:22:42.289Z,0.63
2023-08-08T11:25:13.028Z,0.57
2023-08-08T11:27:44.617Z,0.43
2023-08-08T11:30:16.015Z,0.40
2023-08-08T11:33:15.452Z,0.57
2023-08-08T11:35:41.702Z,0.50
2023-08-08T11:38:12.041Z,0.60
2023-08-08T11:40:42.431Z,0.50
2023-08-08T11:43:13.140Z,0.68
2023-08-08T11:45:43.702Z,0.68
2023-08-08T11:48:17.097Z,0.70
2023-08-08T11:50:48.421Z,0.85
2023-08-08T11:53:18.721Z,0.65
2023-08-08T11:55:54.946Z,0.57
2023-08-08T11:58:28.122Z,0.65
2023-08-08T12:00:58.584Z,1.23
2023-08-08T12:03:32.356Z,0.57
2023-08-08T12:06:05.770Z,0.82
2023-08-08T12:08:37.140Z,0.60
2023-08-08T12:11:09.538Z,0.63
2023-08-08T12:13:43.719Z,0.50
2023-08-08T12:16:17.507Z,0.55
2023-08-08T12:18:53.111Z,0.60
2023-08-08T12:21:28.442Z,0.82
2023-08-08T12:23:58.957Z,0.73
2023-08-08T12:26:29.272Z,0.52
2023-08-08T12:28:59.627Z,0.50
2023-08-08T12:31:29.989Z,0.68
2023-08-08T12:34:04.060Z,0.93
2023-08-08T12:36:34.475Z,0.60
2023-08-08T12:39:04.837Z,0.73
2023-08-08T12:41:35.140Z,0.70
2023-08-08T12:44:05.477Z,0.40
2023-08-08T12:46:35.875Z,0.57
2023-08-08T12:49:09.633Z,0.98
2023-08-08T12:51:39.943Z,0.68
2023-08-08T12:54:10.587Z,0.43
2023-08-08T12:56:40.875Z,0.40
2023-08-08T12:59:11.216Z,0.32
2023-08-08T13:01:41.526Z,0.35
2023-08-08T13:06:48.305Z,0.77
2023-08-08T13:09:18.980Z,0.85
2023-08-08T13:11:49.349Z,0.43
2023-08-08T13:14:22.788Z,0.32
2023-08-08T13:16:54.467Z,0.55
2023-08-08T13:19:28.020Z,0.40
2023-08-08T13:21:59.320Z,0.60
2023-08-08T13:24:30.062Z,0.50
2023-08-08T13:27:00.398Z,0.63
2023-08-08T13:29:30.672Z,0.52
2023-08-08T13:32:01.249Z,0.55
2023-08-08T13:34:34.339Z,0.22
2023-08-08T13:37:04.846Z,0.45
2023-08-08T13:39:35.231Z,0.60
2023-08-08T13:42:05.795Z,0.60
2023-08-08T13:44:36.085Z,0.75
2023-08-08T13:47:09.314Z,0.63
2023-08-08T13:49:42.189Z,0.68
2023-08-08T13:52:13.163Z,0.57
2023-08-08T13:54:43.553Z,0.63
2023-08-08T13:57:17.472Z,0.65
2023-08-08T13:59:47.848Z,0.63
2023-08-08T14:02:21.059Z,0.77
2023-08-08T14:04:54.015Z,0.55
2023-08-08T14:07:25.326Z,0.45
2023-08-08T14:09:58.155Z,0.60
2023-08-08T14:12:28.629Z,0.52
2023-08-08T14:14:58.916Z,0.90
2023-08-08T14:17:29.301Z,0.73
2023-08-08T14:20:02.450Z,0.63
2023-08-08T14:22:32.857Z,0.80
2023-08-08T14:25:03.465Z,0.70
2023-08-08T14:27:33.996Z,0.57
2023-08-08T14:30:05.202Z,0.90
2023-08-08T14:32:40.688Z,0.55
2023-08-08T14:35:19.437Z,0.52
2023-08-08T14:37:52.646Z,0.60
2023-08-08T14:40:23.114Z,0.82
2023-08-08T14:42:56.186Z,0.80
2023-08-08T14:45:29.384Z,0.68
2023-08-08T14:48:00.012Z,0.68
2023-08-08T14:50:33.247Z,0.52
2023-08-08T14:53:03.526Z,0.77
2023-08-08T14:55:34.009Z,0.47
2023-08-08T14:58:04.340Z,0.68
2023-08-08T15:00:34.760Z,0.57
2023-08-08T15:03:05.308Z,0.68
2023-08-08T15:05:46.748Z,0.30
2023-08-08T15:08:17.768Z,0.73
2023-08-08T15:10:48.160Z,0.63
2023-08-08T15:13:18.421Z,0.98
2023-08-08T15:15:48.868Z,0.70
2023-08-08T15:18:20.548Z,1.30
2023-08-08T15:20:53.548Z,0.60
2023-08-08T15:23:25.734Z,0.95
2023-08-08T15:25:56.412Z,0.75
2023-08-08T15:28:26.841Z,0.63
2023-08-08T15:30:59.677Z,0.60
2023-08-08T15:33:32.946Z,0.60
2023-08-08T15:36:06.048Z,0.52
2023-08-08T15:38:36.401Z,0.70
2023-08-08T15:41:09.654Z,0.70
2023-08-08T15:43:42.086Z,1.60
2023-08-08T15:46:12.392Z,0.52
2023-08-08T15:48:43.381Z,0.77
2023-08-08T15:51:16.295Z,0.60
2023-08-08T15:53:46.653Z,0.50
2023-08-08T15:56:17.051Z,0.65
2023-08-08T15:58:47.432Z,0.80
2023-08-08T16:01:17.804Z,0.60
2023-08-08T16:03:50.483Z,0.65
2023-08-08T16:06:24.621Z,0.52
2023-08-08T16:08:56.055Z,1.38
2023-08-08T16:11:26.385Z,0.90
2023-08-08T16:13:56.636Z,0.77
2023-08-08T16:16:26.934Z,0.90
2023-08-08T16:18:57.259Z,0.65
2023-08-08T16:21:30.155Z,0.60
2023-08-08T16:24:00.560Z,0.70
2023-08-08T16:26:30.894Z,0.50
2023-08-08T16:29:01.412Z,0.90
2023-08-08T16:31:33.190Z,0.90
2023-08-08T16:34:04.369Z,0.93
2023-08-08T16:36:38.670Z,0.80
2023-08-08T16:39:18.322Z,0.70
2023-08-08T16:41:49.392Z,1.00
2023-08-08T16:44:21.805Z,0.70
2023-08-08T16:46:54.557Z,0.60
2023-08-08T16:49:24.977Z,1.58
2023-08-08T16:51:57.866Z,0.60
2023-08-08T16:54:28.250Z,0.77
2023-08-08T16:56:58.580Z,1.00
2023-08-08T16:59:28.841Z,0.77
2023-08-08T17:02:00.098Z,0.90
2023-08-08T17:04:31.009Z,0.75
2023-08-08T17:07:06.847Z,1.15
2023-08-08T17:09:37.242Z,0.90
2023-08-08T17:12:08.254Z,0.90
2023-08-08T17:14:39.071Z,1.00
2023-08-08T17:17:09.494Z,1.00
2023-08-08T17:19:39.931Z,0.93
2023-08-08T17:22:13.009Z,1.20
2023-08-08T17:24:43.333Z,1.50
2023-08-08T17:27:13.743Z,0.93
2023-08-08T17:29:43.984Z,0.85
2023-08-08T17:32:17.202Z,1.00
2023-08-08T17:34:47.632Z,0.70
2023-08-08T17:37:25.953Z,1.00
2023-08-08T17:39:56.276Z,0.85
2023-08-08T17:42:26.543Z,0.68
2023-08-08T17:44:56.890Z,0.90
2023-08-08T17:47:27.234Z,1.83
2023-08-08T17:49:58.903Z,1.10
2023-08-08T17:52:31.908Z,0.90
2023-08-08T17:55:22.142Z,1.00
2023-08-08T17:57:55.158Z,0.95
2023-08-08T18:00:25.952Z,0.75
2023-08-08T18:02:57.033Z,1.90
2023-08-08T18:05:27.693Z,1.10
2023-08-08T18:08:00.845Z,0.77
2023-08-08T18:10:32.966Z,0.85
2023-08-08T18:13:03.276Z,1.10
2023-08-08T18:15:33.888Z,1.98
2023-08-08T18:18:06.116Z,0.90
2023-08-08T18:20:44.298Z,0.98
2023-08-08T18:23:17.671Z,1.20
2023-08-08T18:25:48.616Z,1.15
2023-08-08T18:28:20.516Z,1.55
2023-08-08T18:30:51.504Z,1.55
2023-08-08T18:33:22.679Z,1.85
2023-08-08T18:35:54.603Z,0.98
2023-08-08T18:38:28.105Z,1.60
2023-08-08T18:40:58.923Z,1.00
2023-08-08T18:43:29.943Z,0.93
2023-08-08T18:46:00.704Z,0.60
2023-08-08T18:48:31.213Z,1.05
2023-08-08T18:51:01.587Z,1.10
2023-08-08T18:53:34.657Z,1.15
2023-08-08T18:56:05.029Z,1.10
2023-08-08T18:58:35.509Z,1.10
2023-08-08T19:01:06.980Z,1.80
2023-08-08T19:03:37.655Z,1.52
2023-08-08T19:06:15.462Z,1.02
2023-08-08T19:08:50.523Z,0.88
2023-08-08T19:11:21.010Z,1.10
2023-08-08T19:13:51.501Z,1.00
2023-08-08T19:16:21.871Z,0.70
2023-08-08T19:18:52.215Z,1.40
2023-08-08T19:21:23.306Z,1.15
2023-08-08T19:23:59.278Z,1.02
2023-08-08T19:26:30.384Z,0.95
2023-08-08T19:29:01.880Z,1.77
2023-08-08T19:31:32.264Z,1.02
2023-08-08T19:34:07.609Z,0.95
2023-08-08T19:36:38.284Z,1.90
2023-08-08T19:39:12.787Z,1.33
2023-08-08T19:41:48.654Z,1.02
2023-08-08T19:44:19.112Z,1.30
2023-08-08T19:46:49.514Z,1.00
2023-08-08T19:49:22.619Z,1.85
2023-08-08T19:51:52.942Z,1.17
2023-08-08T19:56:55.958Z,1.25
2023-08-08T19:59:26.268Z,0.85
2023-08-08T20:01:59.907Z,1.40
2023-08-08T20:04:37.496Z,1.15
2023-08-08T20:07:08.187Z,1.20
2023-08-08T20:09:41.186Z,1.30
2023-08-08T20:12:11.614Z,1.55
2023-08-08T20:14:43.103Z,2.72
2023-08-08T20:17:13.430Z,2.17
2023-08-08T20:19:43.742Z,1.75
2023-08-08T20:24:46.716Z,1.70
2023-08-08T20:27:17.001Z,1.60
2023-08-08T20:29:47.435Z,1.80
2023-08-08T20:32:17.637Z,2.47
2023-08-08T20:37:18.739Z,2.28
2023-08-08T20:39:51.615Z,1.92
2023-08-08T20:42:22.106Z,2.10
2023-08-08T20:44:55.983Z,1.40
2023-08-08T20:47:26.265Z,1.35
2023-08-08T20:49:56.721Z,1.30
2023-08-08T20:52:27.086Z,1.23
2023-08-08T20:55:01.031Z,1.27
2023-08-08T20:57:31.514Z,1.90
2023-08-08T21:00:02.438Z,1.67
2023-08-08T21:02:34.490Z,1.33
2023-08-08T21:05:04.881Z,1.10
2023-08-08T21:07:36.893Z,1.35
2023-08-08T21:10:10.992Z,1.20
2023-08-08T21:12:41.406Z,1.23
2023-08-08T21:15:14.148Z,1.50
2023-08-08T21:17:47.484Z,1.10
2023-08-08T21:20:17.942Z,0.90
2023-08-08T21:22:48.294Z,1.30
2023-08-08T21:25:22.910Z,1.05
2023-08-08T21:27:53.235Z,1.02
2023-08-08T21:32:53.488Z,0.90
2023-08-08T21:37:53.883Z,0.93
2023-08-08T21:40:27.126Z,0.98
2023-08-08T21:42:57.376Z,1.38
2023-08-08T21:45:28.017Z,1.00
2023-08-08T21:47:59.917Z,1.08
2023-08-08T21:50:30.461Z,1.05
2023-08-08T21:53:00.895Z,0.82
2023-08-08T21:55:33.740Z,1.30
2023-08-08T21:58:07.193Z,1.08
2023-08-08T22:00:37.759Z,1.80
2023-08-08T22:03:13.935Z,1.08
2023-08-08T22:05:46.925Z,0.90
2023-08-08T22:08:17.318Z,0.77
2023-08-08T22:13:23.903Z,0.80
2023-08-08T22:15:55.221Z,0.60
2023-08-08T22:18:25.580Z,0.73
2023-08-08T22:20:53.578Z,1.27
2023-08-08T22:23:23.972Z,0.60
2023-08-08T22:25:58.453Z,1.05
2023-08-08T22:28:28.874Z,0.90
2023-08-08T22:30:59.642Z,1.70
2023-08-08T22:33:32.417Z,0.90
2023-08-08T22:36:04.809Z,0.82
2023-08-08T22:38:37.530Z,0.70
2023-08-08T22:41:10.398Z,0.82
2023-08-08T22:43:40.975Z,0.55
2023-08-08T22:46:16.313Z,1.42
2023-08-08T22:48:46.600Z,0.75
2023-08-08T22:53:56.374Z,0.85
2023-08-08T22:56:29.279Z,1.00
2023-08-08T22:58:59.521Z,0.98
2023-08-08T23:03:59.861Z,0.85
2023-08-08T23:06:30.103Z,1.00
2023-08-08T23:09:00.389Z,0.90
2023-08-08T23:11:33.239Z,0.73
2023-08-08T23:14:03.702Z,2.08
2023-08-08T23:16:34.011Z,0.80
2023-08-08T23:19:09.593Z,0.95
2023-08-08T23:21:42.721Z,1.05
2023-08-08T23:24:13.373Z,1.55
2023-08-08T23:26:49.475Z,0.90
2023-08-08T23:29:19.796Z,0.88
2023-08-08T23:34:20.838Z,0.52
2023-08-08T23:36:51.519Z,0.82
2023-08-08T23:39:25.904Z,0.82
2023-08-08T23:42:01.640Z,0.85
2023-08-08T23:44:31.921Z,0.80
2023-08-08T23:47:02.465Z,0.90
2023-08-08T23:49:32.913Z,1.00
2023-08-08T23:54:35.416Z,1.20
2023-08-08T23:57:09.107Z,0.95
2023-08-08T23:59:42.317Z,1.00
